sensor_id;sensor_type;location;lat;lon;timestamp;P1;durP1;ratioP1;P2;durP2;ratioP2
24715;SDS011;12822;50.124;8.678;2022-08-01T00:01:50;2.08;;;1.00;;
24715;SDS011;12822;50.124;8.678;2022-08-01T00:04:16;6.80;;;1.77;;
24715;SDS011;12822;50.124;8.678;2022-08-01T00:06:42;4.22;;;1.58;;
24715;SDS011;12822;50.124;8.678;2022-08-01T00:09:08;4.63;;;1.40;;
24715;SDS011;12822;50.124;8.678;2022-08-01T00:11:34;4.90;;;1.50;;
24715;SDS011;12822;50.124;8.678;2022-08-01T00:14:00;2.00;;;1.05;;
24715;SDS011;12822;50.124;8.678;2022-08-01T00:16:27;3.17;;;1.40;;
24715;SDS011;12822;50.124;8.678;2022-08-01T00:18:53;2.42;;;1.55;;
24715;SDS011;12822;50.124;8.678;2022-08-01T00:21:20;1.75;;;1.10;;
24715;SDS011;12822;50.124;8.678;2022-08-01T00:23:46;2.25;;;1.48;;
24715;SDS011;12822;50.124;8.678;2022-08-01T00:26:12;1.95;;;1.58;;
24715;SDS011;12822;50.124;8.678;2022-08-01T00:28:38;2.05;;;1.30;;
24715;SDS011;12822;50.124;8.678;2022-08-01T00:31:04;9.25;;;1.63;;
24715;SDS011;12822;50.124;8.678;2022-08-01T00:33:31;3.92;;;1.60;;
24715;SDS011;12822;50.124;8.678;2022-08-01T00:35:57;4.32;;;1.40;;
24715;SDS011;12822;50.124;8.678;2022-08-01T00:38:23;2.13;;;1.20;;
24715;SDS011;12822;50.124;8.678;2022-08-01T00:40:49;2.50;;;1.52;;
24715;SDS011;12822;50.124;8.678;2022-08-01T00:43:15;3.22;;;1.55;;
24715;SDS011;12822;50.124;8.678;2022-08-01T00:45:41;3.60;;;1.55;;
24715;SDS011;12822;50.124;8.678;2022-08-01T00:48:07;3.00;;;1.17;;
24715;SDS011;12822;50.124;8.678;2022-08-01T00:50:33;2.88;;;1.70;;
24715;SDS011;12822;50.124;8.678;2022-08-01T00:53:00;3.25;;;1.20;;
24715;SDS011;12822;50.124;8.678;2022-08-01T00:55:26;2.30;;;1.40;;
24715;SDS011;12822;50.124;8.678;2022-08-01T00:57:52;1.70;;;1.17;;
24715;SDS011;12822;50.124;8.678;2022-08-01T01:00:19;4.07;;;1.48;;
24715;SDS011;12822;50.124;8.678;2022-08-01T01:02:45;2.95;;;1.40;;
24715;SDS011;12822;50.124;8.678;2022-08-01T01:05:11;4.45;;;1.45;;
24715;SDS011;12822;50.124;8.678;2022-08-01T01:10:15;3.85;;;1.75;;
24715;SDS011;12822;50.124;8.678;2022-08-01T01:15:15;2.28;;;1.35;;
24715;SDS011;12822;50.124;8.678;2022-08-01T01:17:48;2.55;;;1.23;;
24715;SDS011;12822;50.124;8.678;2022-08-01T01:20:16;1.23;;;1.08;;
24715;SDS011;12822;50.124;8.678;2022-08-01T01:30:23;2.97;;;1.40;;
24715;SDS011;12822;50.124;8.678;2022-08-01T01:32:50;1.92;;;1.17;;
24715;SDS011;12822;50.124;8.678;2022-08-01T01:35:20;4.32;;;1.65;;
24715;SDS011;12822;50.124;8.678;2022-08-01T01:37:47;2.10;;;1.42;;
24715;SDS011;12822;50.124;8.678;2022-08-01T01:40:15;3.47;;;1.10;;
24715;SDS011;12822;50.124;8.678;2022-08-01T01:42:42;3.97;;;1.23;;
24715;SDS011;12822;50.124;8.678;2022-08-01T01:45:08;2.42;;;1.20;;
24715;SDS011;12822;50.124;8.678;2022-08-01T01:47:35;5.13;;;1.30;;
24715;SDS011;12822;50.124;8.678;2022-08-01T01:50:02;4.22;;;1.40;;
24715;SDS011;12822;50.124;8.678;2022-08-01T01:52:29;4.90;;;1.25;;
24715;SDS011;12822;50.124;8.678;2022-08-01T01:54:56;3.67;;;1.40;;
24715;SDS011;12822;50.124;8.678;2022-08-01T01:57:24;2.30;;;1.40;;
24715;SDS011;12822;50.124;8.678;2022-08-01T01:59:50;4.22;;;1.10;;
24715;SDS011;12822;50.124;8.678;2022-08-01T02:02:18;2.03;;;0.90;;
24715;SDS011;12822;50.124;8.678;2022-08-01T02:04:45;4.53;;;1.30;;
24715;SDS011;12822;50.124;8.678;2022-08-01T02:07:12;3.25;;;1.30;;
24715;SDS011;12822;50.124;8.678;2022-08-01T02:09:40;3.10;;;1.35;;
24715;SDS011;12822;50.124;8.678;2022-08-01T02:12:07;1.65;;;1.23;;
24715;SDS011;12822;50.124;8.678;2022-08-01T02:14:34;5.43;;;1.80;;
24715;SDS011;12822;50.124;8.678;2022-08-01T02:17:00;4.88;;;1.30;;
24715;SDS011;12822;50.124;8.678;2022-08-01T02:19:28;2.75;;;1.48;;
24715;SDS011;12822;50.124;8.678;2022-08-01T02:22:01;1.23;;;1.13;;
24715;SDS011;12822;50.124;8.678;2022-08-01T02:27:00;2.28;;;1.42;;
24715;SDS011;12822;50.124;8.678;2022-08-01T02:29:27;2.17;;;1.17;;
24715;SDS011;12822;50.124;8.678;2022-08-01T02:34:24;1.38;;;1.10;;
24715;SDS011;12822;50.124;8.678;2022-08-01T02:36:51;2.55;;;1.30;;
24715;SDS011;12822;50.124;8.678;2022-08-01T02:39:17;3.03;;;1.20;;
24715;SDS011;12822;50.124;8.678;2022-08-01T02:41:46;3.42;;;1.52;;
24715;SDS011;12822;50.124;8.678;2022-08-01T02:44:18;4.57;;;1.23;;
24715;SDS011;12822;50.124;8.678;2022-08-01T02:46:49;5.40;;;1.23;;
24715;SDS011;12822;50.124;8.678;2022-08-01T02:49:15;3.97;;;1.40;;
24715;SDS011;12822;50.124;8.678;2022-08-01T02:51:44;5.53;;;1.40;;
24715;SDS011;12822;50.124;8.678;2022-08-01T02:54:12;4.68;;;1.30;;
24715;SDS011;12822;50.124;8.678;2022-08-01T02:56:39;2.80;;;1.20;;
24715;SDS011;12822;50.124;8.678;2022-08-01T02:59:15;3.60;;;1.17;;
24715;SDS011;12822;50.124;8.678;2022-08-01T03:01:42;3.20;;;1.30;;
24715;SDS011;12822;50.124;8.678;2022-08-01T03:04:10;2.60;;;1.30;;
24715;SDS011;12822;50.124;8.678;2022-08-01T03:06:36;2.13;;;1.20;;
24715;SDS011;12822;50.124;8.678;2022-08-01T03:09:03;3.15;;;1.17;;
24715;SDS011;12822;50.124;8.678;2022-08-01T03:11:30;3.30;;;1.50;;
24715;SDS011;12822;50.124;8.678;2022-08-01T03:13:56;2.17;;;1.35;;
24715;SDS011;12822;50.124;8.678;2022-08-01T03:16:24;1.80;;;1.40;;
24715;SDS011;12822;50.124;8.678;2022-08-01T03:18:53;5.50;;;1.20;;
24715;SDS011;12822;50.124;8.678;2022-08-01T03:21:19;3.42;;;1.23;;
24715;SDS011;12822;50.124;8.678;2022-08-01T03:23:46;3.22;;;1.33;;
24715;SDS011;12822;50.124;8.678;2022-08-01T03:26:13;3.65;;;1.70;;
24715;SDS011;12822;50.124;8.678;2022-08-01T03:28:39;4.70;;;1.60;;
24715;SDS011;12822;50.124;8.678;2022-08-01T03:31:07;3.60;;;1.10;;
24715;SDS011;12822;50.124;8.678;2022-08-01T03:33:33;2.08;;;1.20;;
24715;SDS011;12822;50.124;8.678;2022-08-01T03:35:59;6.25;;;1.50;;
24715;SDS011;12822;50.124;8.678;2022-08-01T03:38:26;2.42;;;1.17;;
24715;SDS011;12822;50.124;8.678;2022-08-01T03:40:56;5.18;;;1.40;;
24715;SDS011;12822;50.124;8.678;2022-08-01T03:45:50;3.90;;;1.40;;
24715;SDS011;12822;50.124;8.678;2022-08-01T03:48:17;4.95;;;1.55;;
24715;SDS011;12822;50.124;8.678;2022-08-01T03:50:47;3.53;;;1.27;;
24715;SDS011;12822;50.124;8.678;2022-08-01T03:53:14;1.52;;;1.20;;
24715;SDS011;12822;50.124;8.678;2022-08-01T03:55:41;1.67;;;1.30;;
24715;SDS011;12822;50.124;8.678;2022-08-01T03:58:08;4.40;;;1.50;;
24715;SDS011;12822;50.124;8.678;2022-08-01T04:00:36;2.78;;;1.30;;
24715;SDS011;12822;50.124;8.678;2022-08-01T04:03:04;5.50;;;1.58;;
24715;SDS011;12822;50.124;8.678;2022-08-01T04:05:30;3.22;;;1.33;;
24715;SDS011;12822;50.124;8.678;2022-08-01T04:07:56;2.92;;;1.10;;
24715;SDS011;12822;50.124;8.678;2022-08-01T04:10:24;5.10;;;1.30;;
24715;SDS011;12822;50.124;8.678;2022-08-01T04:12:50;2.25;;;1.30;;
24715;SDS011;12822;50.124;8.678;2022-08-01T04:15:16;3.45;;;1.33;;
24715;SDS011;12822;50.124;8.678;2022-08-01T04:17:42;3.13;;;1.40;;
24715;SDS011;12822;50.124;8.678;2022-08-01T04:20:08;3.15;;;1.30;;
24715;SDS011;12822;50.124;8.678;2022-08-01T04:22:36;3.75;;;1.50;;
24715;SDS011;12822;50.124;8.678;2022-08-01T04:25:02;3.20;;;1.42;;
24715;SDS011;12822;50.124;8.678;2022-08-01T04:27:29;2.75;;;1.80;;
24715;SDS011;12822;50.124;8.678;2022-08-01T04:29:56;5.65;;;1.63;;
24715;SDS011;12822;50.124;8.678;2022-08-01T04:32:23;4.80;;;1.88;;
24715;SDS011;12822;50.124;8.678;2022-08-01T04:34:51;3.67;;;1.50;;
24715;SDS011;12822;50.124;8.678;2022-08-01T04:37:20;2.72;;;1.50;;
24715;SDS011;12822;50.124;8.678;2022-08-01T04:39:48;2.83;;;1.40;;
24715;SDS011;12822;50.124;8.678;2022-08-01T04:42:16;5.82;;;1.40;;
24715;SDS011;12822;50.124;8.678;2022-08-01T04:44:43;3.55;;;1.70;;
24715;SDS011;12822;50.124;8.678;2022-08-01T04:47:09;2.00;;;1.40;;
24715;SDS011;12822;50.124;8.678;2022-08-01T04:49:35;3.00;;;1.95;;
24715;SDS011;12822;50.124;8.678;2022-08-01T04:52:01;3.00;;;1.40;;
24715;SDS011;12822;50.124;8.678;2022-08-01T04:54:28;3.20;;;1.73;;
24715;SDS011;12822;50.124;8.678;2022-08-01T04:56:55;3.35;;;1.60;;
24715;SDS011;12822;50.124;8.678;2022-08-01T04:59:28;3.53;;;1.30;;
24715;SDS011;12822;50.124;8.678;2022-08-01T05:04:32;2.75;;;1.40;;
24715;SDS011;12822;50.124;8.678;2022-08-01T05:06:59;4.10;;;1.60;;
24715;SDS011;12822;50.124;8.678;2022-08-01T05:09:25;7.20;;;1.40;;
24715;SDS011;12822;50.124;8.678;2022-08-01T05:11:51;4.88;;;1.45;;
24715;SDS011;12822;50.124;8.678;2022-08-01T05:14:17;3.33;;;1.40;;
24715;SDS011;12822;50.124;8.678;2022-08-01T05:16:44;5.15;;;1.52;;
24715;SDS011;12822;50.124;8.678;2022-08-01T05:19:10;4.78;;;1.48;;
24715;SDS011;12822;50.124;8.678;2022-08-01T05:21:36;5.75;;;1.35;;
24715;SDS011;12822;50.124;8.678;2022-08-01T05:24:03;3.25;;;1.70;;
24715;SDS011;12822;50.124;8.678;2022-08-01T05:26:29;3.55;;;1.40;;
24715;SDS011;12822;50.124;8.678;2022-08-01T05:28:55;6.72;;;1.65;;
24715;SDS011;12822;50.124;8.678;2022-08-01T05:31:21;4.32;;;1.48;;
24715;SDS011;12822;50.124;8.678;2022-08-01T05:33:48;6.55;;;1.95;;
24715;SDS011;12822;50.124;8.678;2022-08-01T05:36:14;3.40;;;1.83;;
24715;SDS011;12822;50.124;8.678;2022-08-01T05:38:40;3.92;;;1.60;;
24715;SDS011;12822;50.124;8.678;2022-08-01T05:41:06;3.13;;;1.60;;
24715;SDS011;12822;50.124;8.678;2022-08-01T05:43:32;3.50;;;1.83;;
24715;SDS011;12822;50.124;8.678;2022-08-01T05:45:57;7.20;;;1.70;;
24715;SDS011;12822;50.124;8.678;2022-08-01T05:48:24;1.98;;;1.45;;
24715;SDS011;12822;50.124;8.678;2022-08-01T05:50:50;4.70;;;1.60;;
24715;SDS011;12822;50.124;8.678;2022-08-01T05:53:16;3.90;;;1.75;;
24715;SDS011;12822;50.124;8.678;2022-08-01T05:55:42;3.63;;;1.90;;
24715;SDS011;12822;50.124;8.678;2022-08-01T05:58:08;2.97;;;1.65;;
24715;SDS011;12822;50.124;8.678;2022-08-01T06:00:34;3.25;;;1.85;;
24715;SDS011;12822;50.124;8.678;2022-08-01T06:03:00;3.47;;;1.80;;
24715;SDS011;12822;50.124;8.678;2022-08-01T06:05:26;2.88;;;1.77;;
24715;SDS011;12822;50.124;8.678;2022-08-01T06:07:53;4.72;;;1.70;;
24715;SDS011;12822;50.124;8.678;2022-08-01T06:10:19;6.63;;;1.90;;
24715;SDS011;12822;50.124;8.678;2022-08-01T06:12:45;5.90;;;1.88;;
24715;SDS011;12822;50.124;8.678;2022-08-01T06:15:11;4.00;;;1.73;;
24715;SDS011;12822;50.124;8.678;2022-08-01T06:17:37;3.13;;;1.80;;
24715;SDS011;12822;50.124;8.678;2022-08-01T06:20:04;3.03;;;1.80;;
24715;SDS011;12822;50.124;8.678;2022-08-01T06:22:31;5.07;;;2.08;;
24715;SDS011;12822;50.124;8.678;2022-08-01T06:24:57;4.10;;;1.63;;
24715;SDS011;12822;50.124;8.678;2022-08-01T06:27:23;3.03;;;1.90;;
24715;SDS011;12822;50.124;8.678;2022-08-01T06:29:52;7.10;;;2.75;;
24715;SDS011;12822;50.124;8.678;2022-08-01T06:32:22;5.70;;;2.38;;
24715;SDS011;12822;50.124;8.678;2022-08-01T06:34:49;3.97;;;2.17;;
24715;SDS011;12822;50.124;8.678;2022-08-01T06:37:15;5.57;;;2.30;;
24715;SDS011;12822;50.124;8.678;2022-08-01T06:39:41;4.55;;;2.22;;
24715;SDS011;12822;50.124;8.678;2022-08-01T06:42:07;4.43;;;2.25;;
24715;SDS011;12822;50.124;8.678;2022-08-01T06:44:34;6.60;;;2.30;;
24715;SDS011;12822;50.124;8.678;2022-08-01T06:47:00;3.35;;;2.25;;
24715;SDS011;12822;50.124;8.678;2022-08-01T06:49:26;6.63;;;2.50;;
24715;SDS011;12822;50.124;8.678;2022-08-01T06:51:52;6.65;;;2.47;;
24715;SDS011;12822;50.124;8.678;2022-08-01T06:54:18;3.97;;;2.70;;
24715;SDS011;12822;50.124;8.678;2022-08-01T06:56:44;5.00;;;2.67;;
24715;SDS011;12822;50.124;8.678;2022-08-01T06:59:10;4.65;;;2.72;;
24715;SDS011;12822;50.124;8.678;2022-08-01T07:01:36;3.15;;;2.15;;
24715;SDS011;12822;50.124;8.678;2022-08-01T07:04:02;2.83;;;2.35;;
24715;SDS011;12822;50.124;8.678;2022-08-01T07:06:28;4.43;;;2.38;;
24715;SDS011;12822;50.124;8.678;2022-08-01T07:08:54;3.75;;;2.60;;
24715;SDS011;12822;50.124;8.678;2022-08-01T07:11:21;2.95;;;2.50;;
24715;SDS011;12822;50.124;8.678;2022-08-01T07:13:47;4.43;;;2.58;;
24715;SDS011;12822;50.124;8.678;2022-08-01T07:16:14;3.92;;;2.45;;
24715;SDS011;12822;50.124;8.678;2022-08-01T07:18:40;3.78;;;2.90;;
24715;SDS011;12822;50.124;8.678;2022-08-01T07:21:07;5.15;;;2.67;;
24715;SDS011;12822;50.124;8.678;2022-08-01T07:23:33;6.10;;;2.95;;
24715;SDS011;12822;50.124;8.678;2022-08-01T07:25:59;3.17;;;2.80;;
24715;SDS011;12822;50.124;8.678;2022-08-01T07:28:26;5.70;;;2.83;;
24715;SDS011;12822;50.124;8.678;2022-08-01T07:30:52;3.75;;;2.60;;
24715;SDS011;12822;50.124;8.678;2022-08-01T07:33:18;3.75;;;2.70;;
24715;SDS011;12822;50.124;8.678;2022-08-01T07:35:44;4.57;;;2.88;;
24715;SDS011;12822;50.124;8.678;2022-08-01T07:38:10;3.97;;;3.13;;
24715;SDS011;12822;50.124;8.678;2022-08-01T07:40:36;5.10;;;3.00;;
24715;SDS011;12822;50.124;8.678;2022-08-01T07:43:03;3.70;;;3.13;;
24715;SDS011;12822;50.124;8.678;2022-08-01T07:45:29;6.90;;;3.05;;
24715;SDS011;12822;50.124;8.678;2022-08-01T07:47:56;3.38;;;2.83;;
24715;SDS011;12822;50.124;8.678;2022-08-01T07:50:22;3.20;;;2.65;;
24715;SDS011;12822;50.124;8.678;2022-08-01T07:52:48;5.43;;;2.83;;
24715;SDS011;12822;50.124;8.678;2022-08-01T07:55:14;5.78;;;2.75;;
24715;SDS011;12822;50.124;8.678;2022-08-01T07:57:40;3.63;;;2.80;;
24715;SDS011;12822;50.124;8.678;2022-08-01T08:00:06;3.33;;;2.75;;
24715;SDS011;12822;50.124;8.678;2022-08-01T08:02:34;4.75;;;2.50;;
24715;SDS011;12822;50.124;8.678;2022-08-01T08:05:00;3.55;;;2.75;;
24715;SDS011;12822;50.124;8.678;2022-08-01T08:07:26;3.92;;;2.72;;
24715;SDS011;12822;50.124;8.678;2022-08-01T08:09:52;5.60;;;2.70;;
24715;SDS011;12822;50.124;8.678;2022-08-01T08:12:18;3.28;;;2.53;;
24715;SDS011;12822;50.124;8.678;2022-08-01T08:14:44;5.60;;;2.90;;
24715;SDS011;12822;50.124;8.678;2022-08-01T08:17:10;4.03;;;2.83;;
24715;SDS011;12822;50.124;8.678;2022-08-01T08:19:35;6.38;;;3.25;;
24715;SDS011;12822;50.124;8.678;2022-08-01T08:22:04;7.90;;;3.50;;
24715;SDS011;12822;50.124;8.678;2022-08-01T08:24:30;3.42;;;2.90;;
24715;SDS011;12822;50.124;8.678;2022-08-01T08:26:56;6.38;;;3.30;;
24715;SDS011;12822;50.124;8.678;2022-08-01T08:29:23;5.45;;;3.60;;
24715;SDS011;12822;50.124;8.678;2022-08-01T08:31:49;4.40;;;3.45;;
24715;SDS011;12822;50.124;8.678;2022-08-01T08:34:16;6.50;;;3.22;;
24715;SDS011;12822;50.124;8.678;2022-08-01T08:36:42;5.93;;;3.45;;
24715;SDS011;12822;50.124;8.678;2022-08-01T08:39:08;3.90;;;3.30;;
24715;SDS011;12822;50.124;8.678;2022-08-01T08:41:34;5.88;;;3.30;;
24715;SDS011;12822;50.124;8.678;2022-08-01T08:44:03;6.85;;;3.40;;
24715;SDS011;12822;50.124;8.678;2022-08-01T08:46:29;6.07;;;3.30;;
24715;SDS011;12822;50.124;8.678;2022-08-01T08:49:00;6.45;;;3.72;;
24715;SDS011;12822;50.124;8.678;2022-08-01T08:51:26;6.15;;;3.40;;
24715;SDS011;12822;50.124;8.678;2022-08-01T08:53:54;4.47;;;3.20;;
24715;SDS011;12822;50.124;8.678;2022-08-01T08:56:21;3.60;;;3.30;;
24715;SDS011;12822;50.124;8.678;2022-08-01T08:58:48;6.50;;;3.42;;
24715;SDS011;12822;50.124;8.678;2022-08-01T09:01:16;5.38;;;3.13;;
24715;SDS011;12822;50.124;8.678;2022-08-01T09:03:42;7.45;;;3.30;;
24715;SDS011;12822;50.124;8.678;2022-08-01T09:06:09;3.30;;;3.00;;
24715;SDS011;12822;50.124;8.678;2022-08-01T09:08:35;4.22;;;3.28;;
24715;SDS011;12822;50.124;8.678;2022-08-01T09:11:01;3.58;;;3.00;;
24715;SDS011;12822;50.124;8.678;2022-08-01T09:13:27;3.97;;;3.50;;
24715;SDS011;12822;50.124;8.678;2022-08-01T09:15:54;5.50;;;3.30;;
24715;SDS011;12822;50.124;8.678;2022-08-01T09:18:53;5.35;;;3.40;;
24715;SDS011;12822;50.124;8.678;2022-08-01T09:21:15;7.78;;;3.78;;
24715;SDS011;12822;50.124;8.678;2022-08-01T09:26:14;6.25;;;3.97;;
24715;SDS011;12822;50.124;8.678;2022-08-01T09:28:40;3.90;;;3.40;;
24715;SDS011;12822;50.124;8.678;2022-08-01T09:31:08;6.07;;;3.58;;
24715;SDS011;12822;50.124;8.678;2022-08-01T09:37:07;6.75;;;3.17;;
24715;SDS011;12822;50.124;8.678;2022-08-01T09:39:33;3.45;;;2.83;;
24715;SDS011;12822;50.124;8.678;2022-08-01T09:42:02;7.97;;;3.08;;
24715;SDS011;12822;50.124;8.678;2022-08-01T09:44:44;5.32;;;2.85;;
24715;SDS011;12822;50.124;8.678;2022-08-01T09:47:11;4.35;;;2.90;;
24715;SDS011;12822;50.124;8.678;2022-08-01T09:49:38;3.05;;;2.42;;
24715;SDS011;12822;50.124;8.678;2022-08-01T09:52:11;4.72;;;2.53;;
24715;SDS011;12822;50.124;8.678;2022-08-01T09:54:37;4.30;;;2.70;;
24715;SDS011;12822;50.124;8.678;2022-08-01T09:57:21;5.03;;;2.40;;
24715;SDS011;12822;50.124;8.678;2022-08-01T09:59:49;5.18;;;2.33;;
24715;SDS011;12822;50.124;8.678;2022-08-01T10:02:34;2.42;;;2.22;;
24715;SDS011;12822;50.124;8.678;2022-08-01T10:05:01;6.00;;;2.38;;
24715;SDS011;12822;50.124;8.678;2022-08-01T10:07:27;3.85;;;2.22;;
24715;SDS011;12822;50.124;8.678;2022-08-01T10:09:53;3.38;;;2.38;;
24715;SDS011;12822;50.124;8.678;2022-08-01T10:12:20;3.38;;;2.28;;
24715;SDS011;12822;50.124;8.678;2022-08-01T10:14:48;4.50;;;2.30;;
24715;SDS011;12822;50.124;8.678;2022-08-01T10:17:15;2.42;;;2.10;;
24715;SDS011;12822;50.124;8.678;2022-08-01T10:19:42;2.67;;;1.90;;
24715;SDS011;12822;50.124;8.678;2022-08-01T10:22:10;2.45;;;2.10;;
24715;SDS011;12822;50.124;8.678;2022-08-01T10:24:37;2.92;;;2.10;;
24715;SDS011;12822;50.124;8.678;2022-08-01T10:27:05;2.78;;;2.47;;
24715;SDS011;12822;50.124;8.678;2022-08-01T10:29:34;3.75;;;2.22;;
24715;SDS011;12822;50.124;8.678;2022-08-01T10:34:27;2.13;;;1.80;;
24715;SDS011;12822;50.124;8.678;2022-08-01T10:36:55;2.80;;;2.00;;
24715;SDS011;12822;50.124;8.678;2022-08-01T10:39:21;2.50;;;1.73;;
24715;SDS011;12822;50.124;8.678;2022-08-01T10:41:47;2.20;;;1.48;;
24715;SDS011;12822;50.124;8.678;2022-08-01T10:44:14;2.20;;;1.65;;
24715;SDS011;12822;50.124;8.678;2022-08-01T10:46:42;2.05;;;1.83;;
24715;SDS011;12822;50.124;8.678;2022-08-01T10:49:12;2.60;;;1.95;;
24715;SDS011;12822;50.124;8.678;2022-08-01T10:51:39;1.73;;;1.60;;
24715;SDS011;12822;50.124;8.678;2022-08-01T10:54:06;2.65;;;1.80;;
24715;SDS011;12822;50.124;8.678;2022-08-01T10:56:54;2.13;;;1.88;;
24715;SDS011;12822;50.124;8.678;2022-08-01T10:59:28;3.60;;;1.95;;
24715;SDS011;12822;50.124;8.678;2022-08-01T11:01:58;3.83;;;1.70;;
24715;SDS011;12822;50.124;8.678;2022-08-01T11:07:06;3.05;;;2.22;;
24715;SDS011;12822;50.124;8.678;2022-08-01T11:09:40;2.70;;;2.10;;
24715;SDS011;12822;50.124;8.678;2022-08-01T11:12:08;5.10;;;2.00;;
24715;SDS011;12822;50.124;8.678;2022-08-01T11:15:16;3.33;;;2.38;;
24715;SDS011;12822;50.124;8.678;2022-08-01T11:17:32;3.22;;;2.10;;
24715;SDS011;12822;50.124;8.678;2022-08-01T11:22:30;4.78;;;2.10;;
24715;SDS011;12822;50.124;8.678;2022-08-01T11:24:56;2.53;;;2.30;;
24715;SDS011;12822;50.124;8.678;2022-08-01T11:27:27;2.65;;;2.38;;
24715;SDS011;12822;50.124;8.678;2022-08-01T11:30:35;3.20;;;2.35;;
24715;SDS011;12822;50.124;8.678;2022-08-01T11:32:46;4.88;;;2.50;;
24715;SDS011;12822;50.124;8.678;2022-08-01T11:35:12;3.10;;;2.20;;
24715;SDS011;12822;50.124;8.678;2022-08-01T11:37:38;3.72;;;2.30;;
24715;SDS011;12822;50.124;8.678;2022-08-01T11:40:20;4.35;;;2.05;;
24715;SDS011;12822;50.124;8.678;2022-08-01T11:42:47;4.10;;;2.28;;
24715;SDS011;12822;50.124;8.678;2022-08-01T11:45:14;4.53;;;2.30;;
24715;SDS011;12822;50.124;8.678;2022-08-01T11:47:49;2.88;;;1.85;;
24715;SDS011;12822;50.124;8.678;2022-08-01T11:50:37;2.92;;;1.70;;
24715;SDS011;12822;50.124;8.678;2022-08-01T11:53:06;3.95;;;2.13;;
24715;SDS011;12822;50.124;8.678;2022-08-01T11:55:32;2.50;;;1.80;;
24715;SDS011;12822;50.124;8.678;2022-08-01T11:58:02;2.95;;;1.80;;
24715;SDS011;12822;50.124;8.678;2022-08-01T12:00:28;5.13;;;2.13;;
24715;SDS011;12822;50.124;8.678;2022-08-01T12:02:59;2.22;;;1.98;;
24715;SDS011;12822;50.124;8.678;2022-08-01T12:07:52;1.90;;;1.70;;
24715;SDS011;12822;50.124;8.678;2022-08-01T12:10:20;5.35;;;1.70;;
24715;SDS011;12822;50.124;8.678;2022-08-01T12:12:50;2.38;;;1.70;;
24715;SDS011;12822;50.124;8.678;2022-08-01T12:15:17;2.65;;;1.65;;
24715;SDS011;12822;50.124;8.678;2022-08-01T12:18:05;2.85;;;1.67;;
24715;SDS011;12822;50.124;8.678;2022-08-01T12:20:31;2.28;;;1.83;;
24715;SDS011;12822;50.124;8.678;2022-08-01T12:22:59;5.88;;;1.70;;
24715;SDS011;12822;50.124;8.678;2022-08-01T12:25:25;2.72;;;1.70;;
24715;SDS011;12822;50.124;8.678;2022-08-01T12:27:51;3.28;;;1.40;;
24715;SDS011;12822;50.124;8.678;2022-08-01T12:30:21;3.53;;;1.92;;
24715;SDS011;12822;50.124;8.678;2022-08-01T12:37:46;3.88;;;1.50;;
24715;SDS011;12822;50.124;8.678;2022-08-01T12:42:43;1.53;;;1.43;;
24715;SDS011;12822;50.124;8.678;2022-08-01T12:45:09;2.65;;;1.73;;
24715;SDS011;12822;50.124;8.678;2022-08-01T12:47:36;2.00;;;1.80;;
24715;SDS011;12822;50.124;8.678;2022-08-01T12:50:06;4.28;;;1.77;;
24715;SDS011;12822;50.124;8.678;2022-08-01T12:52:33;2.38;;;1.75;;
24715;SDS011;12822;50.124;8.678;2022-08-01T12:55:00;3.55;;;1.90;;
24715;SDS011;12822;50.124;8.678;2022-08-01T12:57:27;2.33;;;1.70;;
24715;SDS011;12822;50.124;8.678;2022-08-01T12:59:52;2.92;;;1.90;;
24715;SDS011;12822;50.124;8.678;2022-08-01T13:02:19;3.88;;;1.73;;
24715;SDS011;12822;50.124;8.678;2022-08-01T13:04:51;2.83;;;1.75;;
24715;SDS011;12822;50.124;8.678;2022-08-01T13:07:17;2.75;;;1.80;;
24715;SDS011;12822;50.124;8.678;2022-08-01T13:09:52;2.35;;;1.85;;
24715;SDS011;12822;50.124;8.678;2022-08-01T13:12:18;4.47;;;1.80;;
24715;SDS011;12822;50.124;8.678;2022-08-01T13:14:44;3.25;;;2.20;;
24715;SDS011;12822;50.124;8.678;2022-08-01T13:17:10;1.70;;;1.60;;
24715;SDS011;12822;50.124;8.678;2022-08-01T13:19:42;3.20;;;1.60;;
24715;SDS011;12822;50.124;8.678;2022-08-01T13:22:08;1.83;;;1.70;;
24715;SDS011;12822;50.124;8.678;2022-08-01T13:24:34;3.05;;;1.83;;
24715;SDS011;12822;50.124;8.678;2022-08-01T13:27:01;3.60;;;1.85;;
24715;SDS011;12822;50.124;8.678;2022-08-01T13:32:12;3.17;;;1.45;;
24715;SDS011;12822;50.124;8.678;2022-08-01T13:34:39;1.90;;;1.70;;
24715;SDS011;12822;50.124;8.678;2022-08-01T13:37:05;4.03;;;1.80;;
24715;SDS011;12822;50.124;8.678;2022-08-01T13:39:31;8.77;;;1.95;;
24715;SDS011;12822;50.124;8.678;2022-08-01T13:42:11;2.50;;;1.83;;
24715;SDS011;12822;50.124;8.678;2022-08-01T13:44:37;4.50;;;1.92;;
24715;SDS011;12822;50.124;8.678;2022-08-01T13:47:04;3.60;;;1.80;;
24715;SDS011;12822;50.124;8.678;2022-08-01T13:49:30;2.53;;;1.92;;
24715;SDS011;12822;50.124;8.678;2022-08-01T13:51:56;4.25;;;2.10;;
24715;SDS011;12822;50.124;8.678;2022-08-01T13:54:22;1.92;;;1.67;;
24715;SDS011;12822;50.124;8.678;2022-08-01T13:56:49;2.92;;;1.60;;
24715;SDS011;12822;50.124;8.678;2022-08-01T13:59:16;2.85;;;1.95;;
24715;SDS011;12822;50.124;8.678;2022-08-01T14:01:42;5.07;;;1.45;;
24715;SDS011;12822;50.124;8.678;2022-08-01T14:04:11;5.18;;;1.80;;
24715;SDS011;12822;50.124;8.678;2022-08-01T14:06:37;2.97;;;1.83;;
24715;SDS011;12822;50.124;8.678;2022-08-01T14:09:04;1.83;;;1.65;;
24715;SDS011;12822;50.124;8.678;2022-08-01T14:11:30;2.72;;;1.67;;
24715;SDS011;12822;50.124;8.678;2022-08-01T14:13:56;2.95;;;1.85;;
24715;SDS011;12822;50.124;8.678;2022-08-01T14:16:22;4.30;;;2.05;;
24715;SDS011;12822;50.124;8.678;2022-08-01T14:18:48;5.72;;;2.30;;
24715;SDS011;12822;50.124;8.678;2022-08-01T14:21:14;3.72;;;1.88;;
24715;SDS011;12822;50.124;8.678;2022-08-01T14:23:40;5.50;;;2.15;;
24715;SDS011;12822;50.124;8.678;2022-08-01T14:26:09;3.08;;;1.67;;
24715;SDS011;12822;50.124;8.678;2022-08-01T14:28:36;3.65;;;1.90;;
24715;SDS011;12822;50.124;8.678;2022-08-01T14:31:02;4.18;;;2.20;;
24715;SDS011;12822;50.124;8.678;2022-08-01T14:33:28;4.18;;;2.05;;
24715;SDS011;12822;50.124;8.678;2022-08-01T14:35:55;3.20;;;1.80;;
24715;SDS011;12822;50.124;8.678;2022-08-01T14:38:21;5.57;;;2.50;;
24715;SDS011;12822;50.124;8.678;2022-08-01T14:40:48;6.05;;;2.38;;
24715;SDS011;12822;50.124;8.678;2022-08-01T14:43:16;4.97;;;2.28;;
24715;SDS011;12822;50.124;8.678;2022-08-01T14:45:42;3.00;;;1.90;;
24715;SDS011;12822;50.124;8.678;2022-08-01T14:48:08;3.67;;;2.30;;
24715;SDS011;12822;50.124;8.678;2022-08-01T14:50:34;3.47;;;2.28;;
24715;SDS011;12822;50.124;8.678;2022-08-01T14:53:00;3.00;;;1.95;;
24715;SDS011;12822;50.124;8.678;2022-08-01T14:55:26;4.00;;;2.08;;
24715;SDS011;12822;50.124;8.678;2022-08-01T14:57:52;2.88;;;2.20;;
24715;SDS011;12822;50.124;8.678;2022-08-01T15:00:18;4.68;;;2.20;;
24715;SDS011;12822;50.124;8.678;2022-08-01T15:02:45;3.65;;;2.60;;
24715;SDS011;12822;50.124;8.678;2022-08-01T15:05:11;2.55;;;2.10;;
24715;SDS011;12822;50.124;8.678;2022-08-01T15:07:37;4.32;;;1.90;;
24715;SDS011;12822;50.124;8.678;2022-08-01T15:10:04;3.15;;;2.20;;
24715;SDS011;12822;50.124;8.678;2022-08-01T15:12:30;3.75;;;2.13;;
24715;SDS011;12822;50.124;8.678;2022-08-01T15:14:56;2.65;;;1.90;;
24715;SDS011;12822;50.124;8.678;2022-08-01T15:17:23;6.55;;;2.08;;
24715;SDS011;12822;50.124;8.678;2022-08-01T15:19:53;4.05;;;2.50;;
24715;SDS011;12822;50.124;8.678;2022-08-01T15:22:20;5.38;;;2.47;;
24715;SDS011;12822;50.124;8.678;2022-08-01T15:24:46;2.58;;;2.25;;
24715;SDS011;12822;50.124;8.678;2022-08-01T15:27:12;3.92;;;2.17;;
24715;SDS011;12822;50.124;8.678;2022-08-01T15:29:38;3.35;;;2.30;;
24715;SDS011;12822;50.124;8.678;2022-08-01T15:32:04;3.53;;;2.25;;
24715;SDS011;12822;50.124;8.678;2022-08-01T15:34:31;4.72;;;2.72;;
24715;SDS011;12822;50.124;8.678;2022-08-01T15:36:57;5.05;;;2.50;;
24715;SDS011;12822;50.124;8.678;2022-08-01T15:39:23;4.40;;;2.30;;